sensor_id;sensor_type;location;lat;lon;timestamp;P1;durP1;ratioP1;P2;durP2;ratioP2
8349;SDS011;60699;48.946;8.412;2024-01-30T00:01:10;6.68;;;5.38;;
8349;SDS011;60699;48.946;8.412;2024-01-30T00:03:37;5.38;;;4.90;;
8349;SDS011;60699;48.946;8.412;2024-01-30T00:06:04;5.13;;;4.63;;
8349;SDS011;60699;48.946;8.412;2024-01-30T00:08:31;5.03;;;4.28;;
8349;SDS011;60699;48.946;8.412;2024-01-30T00:10:58;4.55;;;3.97;;
8349;SDS011;60699;48.946;8.412;2024-01-30T00:13:27;6.40;;;4.60;;
8349;SDS011;60699;48.946;8.412;2024-01-30T00:15:54;6.00;;;5.50;;
8349;SDS011;60699;48.946;8.412;2024-01-30T00:18:21;8.93;;;5.35;;
8349;SDS011;60699;48.946;8.412;2024-01-30T00:20:48;6.00;;;4.70;;
8349;SDS011;60699;48.946;8.412;2024-01-30T00:23:15;4.28;;;3.92;;
8349;SDS011;60699;48.946;8.412;2024-01-30T00:25:42;4.25;;;3.85;;
8349;SDS011;60699;48.946;8.412;2024-01-30T00:28:09;7.35;;;4.05;;
8349;SDS011;60699;48.946;8.412;2024-01-30T00:30:37;6.03;;;5.00;;
8349;SDS011;60699;48.946;8.412;2024-01-30T00:33:04;6.38;;;5.70;;
8349;SDS011;60699;48.946;8.412;2024-01-30T00:35:32;5.88;;;5.28;;
8349;SDS011;60699;48.946;8.412;2024-01-30T00:37:59;5.97;;;5.15;;
8349;SDS011;60699;48.946;8.412;2024-01-30T00:40:26;4.53;;;4.13;;
8349;SDS011;60699;48.946;8.412;2024-01-30T00:42:54;5.65;;;4.50;;
8349;SDS011;60699;48.946;8.412;2024-01-30T00:45:21;7.43;;;5.00;;
8349;SDS011;60699;48.946;8.412;2024-01-30T00:47:50;6.60;;;5.03;;
8349;SDS011;60699;48.946;8.412;2024-01-30T00:50:17;4.80;;;4.50;;
8349;SDS011;60699;48.946;8.412;2024-01-30T00:52:44;5.72;;;4.75;;
8349;SDS011;60699;48.946;8.412;2024-01-30T00:55:11;5.72;;;4.60;;
8349;SDS011;60699;48.946;8.412;2024-01-30T00:57:39;4.47;;;4.07;;
8349;SDS011;60699;48.946;8.412;2024-01-30T01:00:06;5.85;;;5.30;;
8349;SDS011;60699;48.946;8.412;2024-01-30T01:02:34;7.65;;;6.05;;
8349;SDS011;60699;48.946;8.412;2024-01-30T01:05:02;6.75;;;5.97;;
8349;SDS011;60699;48.946;8.412;2024-01-30T01:07:29;5.80;;;5.22;;
8349;SDS011;60699;48.946;8.412;2024-01-30T01:09:56;7.40;;;6.63;;
8349;SDS011;60699;48.946;8.412;2024-01-30T01:12:23;6.03;;;5.45;;
8349;SDS011;60699;48.946;8.412;2024-01-30T01:14:50;6.85;;;5.60;;
8349;SDS011;60699;48.946;8.412;2024-01-30T01:17:18;8.20;;;5.68;;
8349;SDS011;60699;48.946;8.412;2024-01-30T01:19:45;6.10;;;5.38;;
8349;SDS011;60699;48.946;8.412;2024-01-30T01:22:13;11.50;;;4.78;;
8349;SDS011;60699;48.946;8.412;2024-01-30T01:24:40;5.50;;;4.93;;
8349;SDS011;60699;48.946;8.412;2024-01-30T01:27:07;4.60;;;4.20;;
8349;SDS011;60699;48.946;8.412;2024-01-30T01:29:34;6.05;;;5.53;;
8349;SDS011;60699;48.946;8.412;2024-01-30T01:32:01;9.93;;;5.47;;
8349;SDS011;60699;48.946;8.412;2024-01-30T01:34:28;9.45;;;4.90;;
8349;SDS011;60699;48.946;8.412;2024-01-30T01:36:55;5.25;;;4.72;;
8349;SDS011;60699;48.946;8.412;2024-01-30T01:39:23;5.47;;;4.07;;
8349;SDS011;60699;48.946;8.412;2024-01-30T01:41:50;4.68;;;4.20;;
8349;SDS011;60699;48.946;8.412;2024-01-30T01:44:18;5.28;;;4.07;;
8349;SDS011;60699;48.946;8.412;2024-01-30T01:46:44;4.65;;;3.78;;
8349;SDS011;60699;48.946;8.412;2024-01-30T01:49:12;4.38;;;3.97;;
8349;SDS011;60699;48.946;8.412;2024-01-30T01:51:39;3.33;;;3.13;;
8349;SDS011;60699;48.946;8.412;2024-01-30T01:54:08;4.25;;;3.78;;
8349;SDS011;60699;48.946;8.412;2024-01-30T01:56:37;3.47;;;3.17;;
8349;SDS011;60699;48.946;8.412;2024-01-30T01:59:05;4.18;;;3.88;;
8349;SDS011;60699;48.946;8.412;2024-01-30T02:01:33;4.38;;;3.97;;
8349;SDS011;60699;48.946;8.412;2024-01-30T02:04:00;8.98;;;4.65;;
8349;SDS011;60699;48.946;8.412;2024-01-30T02:06:27;3.92;;;3.50;;
8349;SDS011;60699;48.946;8.412;2024-01-30T02:08:54;4.95;;;4.55;;
8349;SDS011;60699;48.946;8.412;2024-01-30T02:11:21;5.20;;;4.05;;
8349;SDS011;60699;48.946;8.412;2024-01-30T02:13:50;5.35;;;4.63;;
8349;SDS011;60699;48.946;8.412;2024-01-30T02:16:17;4.45;;;4.07;;
8349;SDS011;60699;48.946;8.412;2024-01-30T02:18:44;5.05;;;4.28;;
8349;SDS011;60699;48.946;8.412;2024-01-30T02:21:14;4.88;;;3.58;;
8349;SDS011;60699;48.946;8.412;2024-01-30T02:23:41;4.65;;;3.97;;
8349;SDS011;60699;48.946;8.412;2024-01-30T02:26:10;4.97;;;4.45;;
8349;SDS011;60699;48.946;8.412;2024-01-30T02:28:37;4.53;;;4.13;;
8349;SDS011;60699;48.946;8.412;2024-01-30T02:31:04;5.93;;;4.40;;
8349;SDS011;60699;48.946;8.412;2024-01-30T02:33:31;4.80;;;4.43;;
8349;SDS011;60699;48.946;8.412;2024-01-30T02:35:58;4.35;;;4.05;;
8349;SDS011;60699;48.946;8.412;2024-01-30T02:38:26;4.90;;;4.45;;
8349;SDS011;60699;48.946;8.412;2024-01-30T02:40:54;5.70;;;4.55;;
8349;SDS011;60699;48.946;8.412;2024-01-30T02:43:21;4.78;;;4.38;;
8349;SDS011;60699;48.946;8.412;2024-01-30T02:45:48;4.88;;;4.47;;
8349;SDS011;60699;48.946;8.412;2024-01-30T02:48:15;4.65;;;4.22;;
8349;SDS011;60699;48.946;8.412;2024-01-30T02:50:42;5.38;;;4.88;;
8349;SDS011;60699;48.946;8.412;2024-01-30T02:53:10;4.35;;;3.95;;
8349;SDS011;60699;48.946;8.412;2024-01-30T02:55:39;4.90;;;4.50;;
8349;SDS011;60699;48.946;8.412;2024-01-30T02:58:06;8.60;;;4.18;;
8349;SDS011;60699;48.946;8.412;2024-01-30T03:00:33;5.20;;;4.78;;
8349;SDS011;60699;48.946;8.412;2024-01-30T03:03:00;4.07;;;3.67;;
8349;SDS011;60699;48.946;8.412;2024-01-30T03:05:27;4.40;;;4.05;;
8349;SDS011;60699;48.946;8.412;2024-01-30T03:07:54;4.90;;;4.22;;
8349;SDS011;60699;48.946;8.412;2024-01-30T03:10:22;4.45;;;3.65;;
8349;SDS011;60699;48.946;8.412;2024-01-30T03:12:50;8.52;;;4.13;;
8349;SDS011;60699;48.946;8.412;2024-01-30T03:15:17;4.35;;;3.95;;
8349;SDS011;60699;48.946;8.412;2024-01-30T03:17:44;3.70;;;3.40;;
8349;SDS011;60699;48.946;8.412;2024-01-30T03:20:11;4.20;;;3.90;;
8349;SDS011;60699;48.946;8.412;2024-01-30T03:22:38;5.47;;;4.30;;
8349;SDS011;60699;48.946;8.412;2024-01-30T03:25:05;4.60;;;4.10;;
8349;SDS011;60699;48.946;8.412;2024-01-30T03:27:32;4.95;;;4.45;;
8349;SDS011;60699;48.946;8.412;2024-01-30T03:30:01;4.05;;;3.75;;
8349;SDS011;60699;48.946;8.412;2024-01-30T03:32:28;3.80;;;3.50;;
8349;SDS011;60699;48.946;8.412;2024-01-30T03:34:55;4.57;;;3.00;;
8349;SDS011;60699;48.946;8.412;2024-01-30T03:37:23;4.60;;;3.60;;
8349;SDS011;60699;48.946;8.412;2024-01-30T03:39:50;5.07;;;2.95;;
8349;SDS011;60699;48.946;8.412;2024-01-30T03:42:17;3.92;;;3.50;;
8349;SDS011;60699;48.946;8.412;2024-01-30T03:44:44;8.93;;;3.40;;
8349;SDS011;60699;48.946;8.412;2024-01-30T03:47:12;4.55;;;3.20;;
8349;SDS011;60699;48.946;8.412;2024-01-30T03:49:39;3.90;;;3.60;;
8349;SDS011;60699;48.946;8.412;2024-01-30T03:52:06;4.10;;;3.80;;
8349;SDS011;60699;48.946;8.412;2024-01-30T03:54:34;5.43;;;3.15;;
8349;SDS011;60699;48.946;8.412;2024-01-30T03:57:01;7.25;;;3.40;;
8349;SDS011;60699;48.946;8.412;2024-01-30T03:59:28;4.20;;;3.80;;
8349;SDS011;60699;48.946;8.412;2024-01-30T04:01:55;4.63;;;4.05;;
8349;SDS011;60699;48.946;8.412;2024-01-30T04:04:23;3.00;;;2.80;;
8349;SDS011;60699;48.946;8.412;2024-01-30T04:06:50;4.32;;;3.10;;
8349;SDS011;60699;48.946;8.412;2024-01-30T04:09:17;3.78;;;3.33;;
8349;SDS011;60699;48.946;8.412;2024-01-30T04:11:44;5.43;;;3.38;;
8349;SDS011;60699;48.946;8.412;2024-01-30T04:14:11;3.40;;;3.10;;
8349;SDS011;60699;48.946;8.412;2024-01-30T04:16:38;3.25;;;2.95;;
8349;SDS011;60699;48.946;8.412;2024-01-30T04:19:05;3.63;;;3.33;;
8349;SDS011;60699;48.946;8.412;2024-01-30T04:21:33;3.40;;;3.17;;
8349;SDS011;60699;48.946;8.412;2024-01-30T04:24:00;3.33;;;3.00;;
8349;SDS011;60699;48.946;8.412;2024-01-30T04:26:27;3.50;;;3.20;;
8349;SDS011;60699;48.946;8.412;2024-01-30T04:28:54;3.05;;;2.80;;
8349;SDS011;60699;48.946;8.412;2024-01-30T04:31:21;5.63;;;3.35;;
8349;SDS011;60699;48.946;8.412;2024-01-30T04:33:48;2.95;;;2.75;;
8349;SDS011;60699;48.946;8.412;2024-01-30T04:36:15;3.47;;;3.15;;
8349;SDS011;60699;48.946;8.412;2024-01-30T04:38:44;3.70;;;2.92;;
8349;SDS011;60699;48.946;8.412;2024-01-30T04:41:11;3.33;;;2.88;;
8349;SDS011;60699;48.946;8.412;2024-01-30T04:43:38;3.80;;;3.50;;
8349;SDS011;60699;48.946;8.412;2024-01-30T04:46:06;2.70;;;2.50;;
8349;SDS011;60699;48.946;8.412;2024-01-30T04:48:33;2.67;;;2.42;;
8349;SDS011;60699;48.946;8.412;2024-01-30T04:51:00;2.75;;;2.55;;
8349;SDS011;60699;48.946;8.412;2024-01-30T04:53:29;4.10;;;3.17;;
8349;SDS011;60699;48.946;8.412;2024-01-30T04:55:57;5.05;;;3.10;;
8349;SDS011;60699;48.946;8.412;2024-01-30T04:58:24;3.65;;;3.17;;
8349;SDS011;60699;48.946;8.412;2024-01-30T05:00:51;3.67;;;3.38;;
8349;SDS011;60699;48.946;8.412;2024-01-30T05:03:18;3.70;;;3.10;;
8349;SDS011;60699;48.946;8.412;2024-01-30T05:05:47;3.22;;;2.90;;
8349;SDS011;60699;48.946;8.412;2024-01-30T05:08:14;4.25;;;3.10;;
8349;SDS011;60699;48.946;8.412;2024-01-30T05:10:41;3.78;;;3.47;;
8349;SDS011;60699;48.946;8.412;2024-01-30T05:13:10;9.25;;;3.28;;
8349;SDS011;60699;48.946;8.412;2024-01-30T05:15:38;3.83;;;3.20;;
8349;SDS011;60699;48.946;8.412;2024-01-30T05:18:05;2.92;;;2.80;;
8349;SDS011;60699;48.946;8.412;2024-01-30T05:20:32;3.10;;;2.90;;
8349;SDS011;60699;48.946;8.412;2024-01-30T05:22:59;3.47;;;2.90;;
8349;SDS011;60699;48.946;8.412;2024-01-30T05:25:26;3.63;;;3.33;;
8349;SDS011;60699;48.946;8.412;2024-01-30T05:27:53;4.32;;;3.70;;
8349;SDS011;60699;48.946;8.412;2024-01-30T05:30:22;3.28;;;2.65;;
8349;SDS011;60699;48.946;8.412;2024-01-30T05:32:49;3.20;;;2.90;;
8349;SDS011;60699;48.946;8.412;2024-01-30T05:35:17;3.45;;;3.15;;
8349;SDS011;60699;48.946;8.412;2024-01-30T05:37:46;3.35;;;3.10;;
8349;SDS011;60699;48.946;8.412;2024-01-30T05:40:13;3.13;;;2.92;;
8349;SDS011;60699;48.946;8.412;2024-01-30T05:42:40;3.42;;;3.13;;
8349;SDS011;60699;48.946;8.412;2024-01-30T05:45:07;3.10;;;2.83;;
8349;SDS011;60699;48.946;8.412;2024-01-30T05:47:36;3.20;;;2.90;;
8349;SDS011;60699;48.946;8.412;2024-01-30T05:50:03;3.35;;;3.05;;
8349;SDS011;60699;48.946;8.412;2024-01-30T05:52:30;3.72;;;3.42;;
8349;SDS011;60699;48.946;8.412;2024-01-30T05:54:57;3.47;;;3.20;;
8349;SDS011;60699;48.946;8.412;2024-01-30T05:57:24;4.00;;;3.65;;
8349;SDS011;60699;48.946;8.412;2024-01-30T05:59:51;4.13;;;3.72;;
8349;SDS011;60699;48.946;8.412;2024-01-30T06:02:18;5.22;;;3.10;;
8349;SDS011;60699;48.946;8.412;2024-01-30T06:04:46;3.08;;;2.88;;
8349;SDS011;60699;48.946;8.412;2024-01-30T06:07:13;3.40;;;3.08;;
8349;SDS011;60699;48.946;8.412;2024-01-30T06:09:42;3.65;;;3.35;;
8349;SDS011;60699;48.946;8.412;2024-01-30T06:12:10;4.50;;;2.97;;
8349;SDS011;60699;48.946;8.412;2024-01-30T06:14:37;3.88;;;3.55;;
8349;SDS011;60699;48.946;8.412;2024-01-30T06:17:05;3.22;;;2.92;;
8349;SDS011;60699;48.946;8.412;2024-01-30T06:19:32;3.22;;;2.95;;
8349;SDS011;60699;48.946;8.412;2024-01-30T06:22:00;5.18;;;3.40;;
8349;SDS011;60699;48.946;8.412;2024-01-30T06:24:27;3.03;;;2.75;;
8349;SDS011;60699;48.946;8.412;2024-01-30T06:26:55;4.30;;;3.88;;
8349;SDS011;60699;48.946;8.412;2024-01-30T06:29:22;4.50;;;4.10;;
8349;SDS011;60699;48.946;8.412;2024-01-30T06:31:49;4.70;;;4.10;;
8349;SDS011;60699;48.946;8.412;2024-01-30T06:34:16;6.00;;;3.53;;
8349;SDS011;60699;48.946;8.412;2024-01-30T06:36:43;3.60;;;3.15;;
8349;SDS011;60699;48.946;8.412;2024-01-30T06:39:12;3.88;;;3.33;;
8349;SDS011;60699;48.946;8.412;2024-01-30T06:41:39;3.80;;;3.40;;
8349;SDS011;60699;48.946;8.412;2024-01-30T06:44:06;11.25;;;4.07;;
8349;SDS011;60699;48.946;8.412;2024-01-30T06:46:33;3.90;;;3.50;;
8349;SDS011;60699;48.946;8.412;2024-01-30T06:49:00;4.80;;;4.28;;
8349;SDS011;60699;48.946;8.412;2024-01-30T06:51:27;5.43;;;4.80;;
8349;SDS011;60699;48.946;8.412;2024-01-30T06:53:54;4.75;;;4.10;;
8349;SDS011;60699;48.946;8.412;2024-01-30T06:56:22;4.15;;;3.75;;
8349;SDS011;60699;48.946;8.412;2024-01-30T06:58:50;5.80;;;3.95;;
8349;SDS011;60699;48.946;8.412;2024-01-30T07:01:17;4.80;;;4.40;;
8349;SDS011;60699;48.946;8.412;2024-01-30T07:03:44;6.93;;;4.20;;
8349;SDS011;60699;48.946;8.412;2024-01-30T07:06:11;5.50;;;4.00;;
8349;SDS011;60699;48.946;8.412;2024-01-30T07:08:38;4.40;;;4.00;;
8349;SDS011;60699;48.946;8.412;2024-01-30T07:11:05;4.75;;;4.22;;
8349;SDS011;60699;48.946;8.412;2024-01-30T07:13:34;4.55;;;4.25;;
8349;SDS011;60699;48.946;8.412;2024-01-30T07:16:01;5.95;;;4.20;;
8349;SDS011;60699;48.946;8.412;2024-01-30T07:18:28;7.22;;;4.55;;
8349;SDS011;60699;48.946;8.412;2024-01-30T07:20:55;6.72;;;5.18;;
8349;SDS011;60699;48.946;8.412;2024-01-30T07:23:22;4.78;;;4.35;;
8349;SDS011;60699;48.946;8.412;2024-01-30T07:25:49;6.28;;;4.30;;
8349;SDS011;60699;48.946;8.412;2024-01-30T07:28:16;5.30;;;4.50;;
8349;SDS011;60699;48.946;8.412;2024-01-30T07:30:44;7.15;;;4.78;;
8349;SDS011;60699;48.946;8.412;2024-01-30T07:33:12;5.93;;;3.50;;
8349;SDS011;60699;48.946;8.412;2024-01-30T07:35:39;7.05;;;4.40;;
8349;SDS011;60699;48.946;8.412;2024-01-30T07:38:06;7.50;;;4.45;;
8349;SDS011;60699;48.946;8.412;2024-01-30T07:40:33;5.88;;;5.10;;
8349;SDS011;60699;48.946;8.412;2024-01-30T07:43:00;5.60;;;4.35;;
8349;SDS011;60699;48.946;8.412;2024-01-30T07:45:28;14.57;;;6.57;;
8349;SDS011;60699;48.946;8.412;2024-01-30T07:47:59;23.23;;;10.02;;
8349;SDS011;60699;48.946;8.412;2024-01-30T07:50:26;23.02;;;9.52;;
8349;SDS011;60699;48.946;8.412;2024-01-30T07:52:53;19.55;;;9.88;;
8349;SDS011;60699;48.946;8.412;2024-01-30T07:55:20;14.93;;;8.63;;
8349;SDS011;60699;48.946;8.412;2024-01-30T07:57:49;9.32;;;7.22;;
8349;SDS011;60699;48.946;8.412;2024-01-30T08:00:17;7.80;;;5.45;;
8349;SDS011;60699;48.946;8.412;2024-01-30T08:02:44;5.65;;;4.50;;
8349;SDS011;60699;48.946;8.412;2024-01-30T08:05:13;5.82;;;5.22;;
8349;SDS011;60699;48.946;8.412;2024-01-30T08:07:40;6.90;;;4.72;;
8349;SDS011;60699;48.946;8.412;2024-01-30T08:10:07;4.70;;;4.25;;
8349;SDS011;60699;48.946;8.412;2024-01-30T08:12:35;4.93;;;4.43;;
8349;SDS011;60699;48.946;8.412;2024-01-30T08:15:02;4.78;;;4.10;;
8349;SDS011;60699;48.946;8.412;2024-01-30T08:17:29;4.40;;;4.00;;
8349;SDS011;60699;48.946;8.412;2024-01-30T08:19:56;8.10;;;4.55;;
8349;SDS011;60699;48.946;8.412;2024-01-30T08:22:24;5.13;;;4.05;;
8349;SDS011;60699;48.946;8.412;2024-01-30T08:24:51;5.43;;;4.43;;
8349;SDS011;60699;48.946;8.412;2024-01-30T08:27:18;3.90;;;3.50;;
8349;SDS011;60699;48.946;8.412;2024-01-30T08:29:45;4.53;;;4.05;;
8349;SDS011;60699;48.946;8.412;2024-01-30T08:32:12;4.60;;;4.15;;
8349;SDS011;60699;48.946;8.412;2024-01-30T08:34:39;10.00;;;5.28;;
8349;SDS011;60699;48.946;8.412;2024-01-30T08:37:06;7.22;;;5.10;;
8349;SDS011;60699;48.946;8.412;2024-01-30T08:39:35;5.85;;;4.55;;
8349;SDS011;60699;48.946;8.412;2024-01-30T08:42:02;8.85;;;6.10;;
8349;SDS011;60699;48.946;8.412;2024-01-30T08:44:29;8.32;;;5.88;;
8349;SDS011;60699;48.946;8.412;2024-01-30T08:46:56;5.72;;;5.13;;
8349;SDS011;60699;48.946;8.412;2024-01-30T08:49:23;7.85;;;5.82;;
8349;SDS011;60699;48.946;8.412;2024-01-30T08:51:50;6.90;;;5.70;;
8349;SDS011;60699;48.946;8.412;2024-01-30T08:54:17;5.30;;;4.82;;
8349;SDS011;60699;48.946;8.412;2024-01-30T08:56:45;4.43;;;4.03;;
8349;SDS011;60699;48.946;8.412;2024-01-30T08:59:12;7.43;;;5.55;;
8349;SDS011;60699;48.946;8.412;2024-01-30T09:01:39;4.90;;;4.40;;
8349;SDS011;60699;48.946;8.412;2024-01-30T09:04:06;5.95;;;4.80;;
8349;SDS011;60699;48.946;8.412;2024-01-30T09:06:33;5.50;;;5.07;;
8349;SDS011;60699;48.946;8.412;2024-01-30T09:09:00;7.40;;;5.35;;
8349;SDS011;60699;48.946;8.412;2024-01-30T09:11:27;6.78;;;4.53;;
8349;SDS011;60699;48.946;8.412;2024-01-30T09:13:56;8.68;;;5.57;;
8349;SDS011;60699;48.946;8.412;2024-01-30T09:16:23;10.98;;;4.60;;
8349;SDS011;60699;48.946;8.412;2024-01-30T09:18:50;6.50;;;5.07;;
8349;SDS011;60699;48.946;8.412;2024-01-30T09:21:17;13.23;;;4.82;;
8349;SDS011;60699;48.946;8.412;2024-01-30T09:23:44;7.15;;;5.20;;
8349;SDS011;60699;48.946;8.412;2024-01-30T09:26:11;6.13;;;5.43;;
8349;SDS011;60699;48.946;8.412;2024-01-30T09:28:38;8.35;;;5.22;;
8349;SDS011;60699;48.946;8.412;2024-01-30T09:31:10;10.07;;;6.97;;
8349;SDS011;60699;48.946;8.412;2024-01-30T09:33:37;9.77;;;6.80;;
8349;SDS011;60699;48.946;8.412;2024-01-30T09:36:05;6.68;;;5.78;;
8349;SDS011;60699;48.946;8.412;2024-01-30T09:38:32;8.02;;;6.95;;
8349;SDS011;60699;48.946;8.412;2024-01-30T09:41:00;12.40;;;6.88;;
8349;SDS011;60699;48.946;8.412;2024-01-30T09:43:29;8.73;;;6.93;;
8349;SDS011;60699;48.946;8.412;2024-01-30T09:45:59;6.93;;;6.28;;
8349;SDS011;60699;48.946;8.412;2024-01-30T09:48:28;9.15;;;6.30;;
8349;SDS011;60699;48.946;8.412;2024-01-30T09:50:55;10.15;;;6.63;;
8349;SDS011;60699;48.946;8.412;2024-01-30T09:53:23;6.97;;;6.15;;
8349;SDS011;60699;48.946;8.412;2024-01-30T09:55:50;6.38;;;5.10;;
8349;SDS011;60699;48.946;8.412;2024-01-30T09:58:17;7.95;;;7.05;;
8349;SDS011;60699;48.946;8.412;2024-01-30T10:00:44;8.15;;;7.28;;
8349;SDS011;60699;48.946;8.412;2024-01-30T10:03:12;8.23;;;7.45;;
8349;SDS011;60699;48.946;8.412;2024-01-30T10:05:41;10.30;;;6.95;;
8349;SDS011;60699;48.946;8.412;2024-01-30T10:08:08;7.15;;;5.72;;
8349;SDS011;60699;48.946;8.412;2024-01-30T10:10:35;6.70;;;6.10;;
8349;SDS011;60699;48.946;8.412;2024-01-30T10:13:02;6.38;;;5.55;;
8349;SDS011;60699;48.946;8.412;2024-01-30T10:15:29;6.43;;;5.82;;
8349;SDS011;60699;48.946;8.412;2024-01-30T10:17:56;8.18;;;5.65;;
8349;SDS011;60699;48.946;8.412;2024-01-30T10:20:24;11.43;;;5.25;;
8349;SDS011;60699;48.946;8.412;2024-01-30T10:22:52;4.90;;;3.90;;
8349;SDS011;60699;48.946;8.412;2024-01-30T10:25:21;5.85;;;5.07;;
8349;SDS011;60699;48.946;8.412;2024-01-30T10:27:52;5.30;;;4.78;;
8349;SDS011;60699;48.946;8.412;2024-01-30T10:30:20;5.15;;;4.57;;
8349;SDS011;60699;48.946;8.412;2024-01-30T10:32:47;5.35;;;4.82;;
8349;SDS011;60699;48.946;8.412;2024-01-30T10:35:14;4.80;;;4.50;;
8349;SDS011;60699;48.946;8.412;2024-01-30T10:37:43;5.10;;;4.65;;
8349;SDS011;60699;48.946;8.412;2024-01-30T10:40:12;5.55;;;5.05;;
8349;SDS011;60699;48.946;8.412;2024-01-30T10:42:41;6.30;;;5.70;;
8349;SDS011;60699;48.946;8.412;2024-01-30T10:45:09;12.13;;;7.43;;
8349;SDS011;60699;48.946;8.412;2024-01-30T10:47:37;10.23;;;6.75;;
8349;SDS011;60699;48.946;8.412;2024-01-30T10:50:07;10.63;;;8.35;;
8349;SDS011;60699;48.946;8.412;2024-01-30T10:52:35;11.55;;;8.25;;
8349;SDS011;60699;48.946;8.412;2024-01-30T10:55:03;12.02;;;8.57;;
8349;SDS011;60699;48.946;8.412;2024-01-30T10:57:33;12.25;;;8.98;;
8349;SDS011;60699;48.946;8.412;2024-01-30T11:00:01;9.70;;;7.53;;
8349;SDS011;60699;48.946;8.412;2024-01-30T11:02:30;9.57;;;8.20;;
8349;SDS011;60699;48.946;8.412;2024-01-30T11:04:59;9.75;;;7.30;;
8349;SDS011;60699;48.946;8.412;2024-01-30T11:07:26;9.00;;;7.05;;
8349;SDS011;60699;48.946;8.412;2024-01-30T11:09:54;11.65;;;8.15;;
8349;SDS011;60699;48.946;8.412;2024-01-30T11:12:26;9.10;;;8.18;;
8349;SDS011;60699;48.946;8.412;2024-01-30T11:15:04;10.68;;;7.95;;
8349;SDS011;60699;48.946;8.412;2024-01-30T11:17:41;8.45;;;7.65;;
8349;SDS011;60699;48.946;8.412;2024-01-30T11:20:12;8.38;;;7.20;;
8349;SDS011;60699;48.946;8.412;2024-01-30T11:22:41;8.40;;;7.68;;
8349;SDS011;60699;48.946;8.412;2024-01-30T11:25:12;9.98;;;8.98;;
8349;SDS011;60699;48.946;8.412;2024-01-30T11:27:40;7.97;;;6.55;;
8349;SDS011;60699;48.946;8.412;2024-01-30T11:30:09;10.23;;;7.68;;
8349;SDS011;60699;48.946;8.412;2024-01-30T11:32:36;7.82;;;7.13;;
8349;SDS011;60699;48.946;8.412;2024-01-30T11:35:04;12.95;;;8.20;;
8349;SDS011;60699;48.946;8.412;2024-01-30T11:37:33;9.57;;;7.85;;
8349;SDS011;60699;48.946;8.412;2024-01-30T11:40:04;9.93;;;7.88;;
8349;SDS011;60699;48.946;8.412;2024-01-30T11:42:31;7.78;;;6.97;;
8349;SDS011;60699;48.946;8.412;2024-01-30T11:44:59;7.43;;;6.40;;
8349;SDS011;60699;48.946;8.412;2024-01-30T11:47:29;8.77;;;7.55;;
8349;SDS011;60699;48.946;8.412;2024-01-30T11:49:56;8.52;;;6.70;;
8349;SDS011;60699;48.946;8.412;2024-01-30T11:52:23;10.50;;;7.00;;
8349;SDS011;60699;48.946;8.412;2024-01-30T11:54:50;8.25;;;7.45;;
8349;SDS011;60699;48.946;8.412;2024-01-30T11:57:17;8.73;;;7.22;;
8349;SDS011;60699;48.946;8.412;2024-01-30T11:59:44;9.77;;;7.35;;
8349;SDS011;60699;48.946;8.412;2024-01-30T12:02:15;9.35;;;7.78;;
8349;SDS011;60699;48.946;8.412;2024-01-30T12:04:43;8.88;;;8.05;;
8349;SDS011;60699;48.946;8.412;2024-01-30T12:07:11;11.93;;;7.85;;
8349;SDS011;60699;48.946;8.412;2024-01-30T12:09:40;8.45;;;7.55;;
8349;SDS011;60699;48.946;8.412;2024-01-30T12:12:08;8.80;;;7.95;;
8349;SDS011;60699;48.946;8.412;2024-01-30T12:14:37;10.88;;;7.03;;
8349;SDS011;60699;48.946;8.412;2024-01-30T12:17:04;10.15;;;7.47;;
8349;SDS011;60699;48.946;8.412;2024-01-30T12:19:32;10.82;;;8.00;;
8349;SDS011;60699;48.946;8.412;2024-01-30T12:22:01;9.45;;;8.23;;
8349;SDS011;60699;48.946;8.412;2024-01-30T12:24:28;9.27;;;7.32;;
8349;SDS011;60699;48.946;8.412;2024-01-30T12:26:56;9.40;;;7.35;;
8349;SDS011;60699;48.946;8.412;2024-01-30T12:29:24;10.98;;;9.35;;
8349;SDS011;60699;48.946;8.412;2024-01-30T12:31:52;12.02;;;8.52;;
8349;SDS011;60699;48.946;8.412;2024-01-30T12:34:19;8.23;;;7.25;;
8349;SDS011;60699;48.946;8.412;2024-01-30T12:36:47;9.63;;;8.48;;
8349;SDS011;60699;48.946;8.412;2024-01-30T12:39:15;9.43;;;7.68;;
8349;SDS011;60699;48.946;8.412;2024-01-30T12:41:42;7.93;;;7.13;;
8349;SDS011;60699;48.946;8.412;2024-01-30T12:44:09;10.05;;;7.70;;
8349;SDS011;60699;48.946;8.412;2024-01-30T12:46:36;9.27;;;7.85;;
8349;SDS011;60699;48.946;8.412;2024-01-30T12:49:03;11.25;;;8.20;;
8349;SDS011;60699;48.946;8.412;2024-01-30T12:51:30;10.10;;;8.07;;
8349;SDS011;60699;48.946;8.412;2024-01-30T12:54:04;12.85;;;7.95;;
8349;SDS011;60699;48.946;8.412;2024-01-30T12:56:32;11.63;;;7.60;;
8349;SDS011;60699;48.946;8.412;2024-01-30T12:58:59;8.50;;;7.70;;
8349;SDS011;60699;48.946;8.412;2024-01-30T13:01:26;13.45;;;8.00;;
8349;SDS011;60699;48.946;8.412;2024-01-30T13:03:53;8.23;;;7.40;;
8349;SDS011;60699;48.946;8.412;2024-01-30T13:06:22;10.20;;;8.18;;
8349;SDS011;60699;48.946;8.412;2024-01-30T13:08:49;13.40;;;7.65;;
8349;SDS011;60699;48.946;8.412;2024-01-30T13:11:16;12.60;;;9.55;;
8349;SDS011;60699;48.946;8.412;2024-01-30T13:13:45;13.52;;;9.18;;
8349;SDS011;60699;48.946;8.412;2024-01-30T13:16:12;10.98;;;8.45;;
8349;SDS011;60699;48.946;8.412;2024-01-30T13:18:39;11.63;;;8.40;;
8349;SDS011;60699;48.946;8.412;2024-01-30T13:21:06;9.27;;;8.30;;
8349;SDS011;60699;48.946;8.412;2024-01-30T13:23:33;13.80;;;8.85;;
8349;SDS011;60699;48.946;8.412;2024-01-30T13:26:00;11.90;;;8.52;;
8349;SDS011;60699;48.946;8.412;2024-01-30T13:28:27;13.82;;;8.30;;
8349;SDS011;60699;48.946;8.412;2024-01-30T13:30:56;12.43;;;8.52;;
8349;SDS011;60699;48.946;8.412;2024-01-30T13:33:23;9.57;;;8.38;;
8349;SDS011;60699;48.946;8.412;2024-01-30T13:35:50;9.90;;;8.70;;
8349;SDS011;60699;48.946;8.412;2024-01-30T13:38:17;11.43;;;9.23;;
8349;SDS011;60699;48.946;8.412;2024-01-30T13:40:44;10.55;;;8.90;;
8349;SDS011;60699;48.946;8.412;2024-01-30T13:43:11;10.40;;;8.43;;
8349;SDS011;60699;48.946;8.412;2024-01-30T13:45:38;14.32;;;9.57;;
8349;SDS011;60699;48.946;8.412;2024-01-30T13:48:08;12.57;;;8.13;;
8349;SDS011;60699;48.946;8.412;2024-01-30T13:50:35;13.95;;;10.80;;
8349;SDS011;60699;48.946;8.412;2024-01-30T13:53:02;12.50;;;9.35;;
8349;SDS011;60699;48.946;8.412;2024-01-30T13:55:30;12.30;;;9.90;;
8349;SDS011;60699;48.946;8.412;2024-01-30T13:57:57;10.43;;;9.32;;
8349;SDS011;60699;48.946;8.412;2024-01-30T14:00:24;11.68;;;9.43;;
8349;SDS011;60699;48.946;8.412;2024-01-30T14:02:51;14.25;;;10.10;;
8349;SDS011;60699;48.946;8.412;2024-01-30T14:05:21;13.50;;;10.35;;
8349;SDS011;60699;48.946;8.412;2024-01-30T14:07:48;14.25;;;11.63;;
8349;SDS011;60699;48.946;8.412;2024-01-30T14:10:15;11.85;;;10.70;;
8349;SDS011;60699;48.946;8.412;2024-01-30T14:12:42;13.80;;;10.45;;
8349;SDS011;60699;48.946;8.412;2024-01-30T14:15:10;13.55;;;10.93;;
8349;SDS011;60699;48.946;8.412;2024-01-30T14:17:37;13.30;;;11.10;;
8349;SDS011;60699;48.946;8.412;2024-01-30T14:20:05;13.40;;;10.75;;
8349;SDS011;60699;48.946;8.412;2024-01-30T14:22:34;13.07;;;10.52;;
8349;SDS011;60699;48.946;8.412;2024-01-30T14:25:01;14.32;;;10.93;;
8349;SDS011;60699;48.946;8.412;2024-01-30T14:27:28;16.95;;;11.90;;
8349;SDS011;60699;48.946;8.412;2024-01-30T14:29:55;13.40;;;12.00;;
8349;SDS011;60699;48.946;8.412;2024-01-30T14:32:23;13.07;;;10.10;;
8349;SDS011;60699;48.946;8.412;2024-01-30T14:34:50;13.18;;;11.32;;
8349;SDS011;60699;48.946;8.412;2024-01-30T14:37:17;18.88;;;10.73;;
8349;SDS011;60699;48.946;8.412;2024-01-30T14:39:45;15.75;;;10.10;;
8349;SDS011;60699;48.946;8.412;2024-01-30T14:42:12;16.25;;;11.20;;
8349;SDS011;60699;48.946;8.412;2024-01-30T14:44:39;17.80;;;10.88;;
8349;SDS011;60699;48.946;8.412;2024-01-30T14:47:06;13.38;;;10.95;;
8349;SDS011;60699;48.946;8.412;2024-01-30T14:49:34;12.70;;;9.45;;
8349;SDS011;60699;48.946;8.412;2024-01-30T14:52:01;11.05;;;9.95;;
8349;SDS011;60699;48.946;8.412;2024-01-30T14:54:29;13.07;;;10.50;;
8349;SDS011;60699;48.946;8.412;2024-01-30T14:56:57;12.30;;;9.35;;
8349;SDS011;60699;48.946;8.412;2024-01-30T14:59:25;14.90;;;10.10;;